sensor_id;sensor_type;location;lat;lon;timestamp;pressure;altitude;pressure_sealevel;temperature;humidity
4590;BME280;2307;48.448;9.216;2023-08-21T00:00:47;95986.25;;;24.84;100.00
4590;BME280;2307;48.448;9.216;2023-08-21T00:03:14;95977.84;;;24.86;100.00
4590;BME280;2307;48.448;9.216;2023-08-21T00:05:40;95972.91;;;24.88;100.00
4590;BME280;2307;48.448;9.216;2023-08-21T00:08:07;95972.09;;;24.88;100.00
4590;BME280;2307;48.448;9.216;2023-08-21T00:10:33;95983.66;;;25.10;100.00
4590;BME280;2307;48.448;9.216;2023-08-21T00:13:03;95972.50;;;25.03;100.00
4590;BME280;2307;48.448;9.216;2023-08-21T00:15:30;95974.09;;;25.04;100.00
4590;BME280;2307;48.448;9.216;2023-08-21T00:17:57;95972.66;;;24.98;100.00
4590;BME280;2307;48.448;9.216;2023-08-21T00:20:23;95971.81;;;24.89;100.00
4590;BME280;2307;48.448;9.216;2023-08-21T00:22:50;95971.47;;;24.82;100.00
4590;BME280;2307;48.448;9.216;2023-08-21T00:25:16;95970.44;;;24.78;100.00
4590;BME280;2307;48.448;9.216;2023-08-21T00:27:44;95964.56;;;24.76;100.00
4590;BME280;2307;48.448;9.216;2023-08-21T00:30:11;95963.34;;;24.82;100.00
4590;BME280;2307;48.448;9.216;2023-08-21T00:32:41;95967.31;;;24.84;100.00
4590;BME280;2307;48.448;9.216;2023-08-21T00:35:08;95964.81;;;24.88;100.00
4590;BME280;2307;48.448;9.216;2023-08-21T00:37:34;95966.72;;;24.88;100.00
4590;BME280;2307;48.448;9.216;2023-08-21T00:40:00;95960.81;;;24.86;100.00
4590;BME280;2307;48.448;9.216;2023-08-21T00:42:27;95963.81;;;24.84;100.00
4590;BME280;2307;48.448;9.216;2023-08-21T00:44:53;95961.53;;;24.77;100.00
4590;BME280;2307;48.448;9.216;2023-08-21T00:47:20;95959.84;;;24.81;100.00
4590;BME280;2307;48.448;9.216;2023-08-21T00:49:47;95962.97;;;24.75;100.00
4590;BME280;2307;48.448;9.216;2023-08-21T00:52:14;95960.16;;;24.58;100.00
4590;BME280;2307;48.448;9.216;2023-08-21T00:54:41;95961.41;;;24.52;100.00
4590;BME280;2307;48.448;9.216;2023-08-21T00:57:07;95956.97;;;24.56;100.00
4590;BME280;2307;48.448;9.216;2023-08-21T00:59:34;95957.78;;;24.56;100.00
4590;BME280;2307;48.448;9.216;2023-08-21T01:02:00;95949.97;;;24.55;100.00
4590;BME280;2307;48.448;9.216;2023-08-21T01:04:27;95956.78;;;24.52;100.00
4590;BME280;2307;48.448;9.216;2023-08-21T01:06:55;95950.16;;;24.58;100.00
4590;BME280;2307;48.448;9.216;2023-08-21T01:09:24;95952.19;;;24.53;100.00
4590;BME280;2307;48.448;9.216;2023-08-21T01:11:54;95958.22;;;24.50;100.00
4590;BME280;2307;48.448;9.216;2023-08-21T01:14:26;95960.44;;;24.48;100.00
4590;BME280;2307;48.448;9.216;2023-08-21T01:16:55;95961.84;;;24.45;100.00
4590;BME280;2307;48.448;9.216;2023-08-21T01:19:24;95955.94;;;24.43;100.00
4590;BME280;2307;48.448;9.216;2023-08-21T01:21:52;95959.69;;;24.33;100.00
4590;BME280;2307;48.448;9.216;2023-08-21T01:24:20;95959.34;;;24.26;100.00
4590;BME280;2307;48.448;9.216;2023-08-21T01:26:46;95959.13;;;24.23;100.00
4590;BME280;2307;48.448;9.216;2023-08-21T01:29:13;95958.38;;;24.22;100.00
4590;BME280;2307;48.448;9.216;2023-08-21T01:31:39;95966.09;;;24.15;100.00
4590;BME280;2307;48.448;9.216;2023-08-21T01:34:08;95958.81;;;24.02;100.00
4590;BME280;2307;48.448;9.216;2023-08-21T01:36:37;95962.59;;;24.01;100.00
4590;BME280;2307;48.448;9.216;2023-08-21T01:39:04;95958.19;;;24.05;100.00
4590;BME280;2307;48.448;9.216;2023-08-21T01:41:32;95972.59;;;24.14;100.00
4590;BME280;2307;48.448;9.216;2023-08-21T01:43:58;95966.97;;;24.11;100.00
4590;BME280;2307;48.448;9.216;2023-08-21T01:46:24;95963.00;;;24.08;100.00
4590;BME280;2307;48.448;9.216;2023-08-21T01:48:51;95960.00;;;24.10;100.00
4590;BME280;2307;48.448;9.216;2023-08-21T01:51:17;95966.78;;;24.07;100.00
4590;BME280;2307;48.448;9.216;2023-08-21T01:53:43;95963.13;;;24.03;100.00
4590;BME280;2307;48.448;9.216;2023-08-21T01:56:10;95961.94;;;23.96;100.00
4590;BME280;2307;48.448;9.216;2023-08-21T01:58:38;95956.34;;;23.92;100.00
4590;BME280;2307;48.448;9.216;2023-08-21T02:01:04;95955.25;;;23.93;100.00
4590;BME280;2307;48.448;9.216;2023-08-21T02:03:30;95954.16;;;23.94;100.00
4590;BME280;2307;48.448;9.216;2023-08-21T02:05:58;95951.94;;;23.96;100.00
4590;BME280;2307;48.448;9.216;2023-08-21T02:08:26;95949.25;;;23.96;100.00
4590;BME280;2307;48.448;9.216;2023-08-21T02:10:53;95945.88;;;23.91;100.00
4590;BME280;2307;48.448;9.216;2023-08-21T02:13:19;95950.75;;;23.89;100.00
4590;BME280;2307;48.448;9.216;2023-08-21T02:15:47;95958.06;;;23.88;100.00
4590;BME280;2307;48.448;9.216;2023-08-21T02:18:13;95955.19;;;23.85;100.00
4590;BME280;2307;48.448;9.216;2023-08-21T02:20:40;95949.47;;;23.86;100.00
4590;BME280;2307;48.448;9.216;2023-08-21T02:23:06;95945.91;;;23.77;100.00
4590;BME280;2307;48.448;9.216;2023-08-21T02:25:32;95945.09;;;23.76;100.00
4590;BME280;2307;48.448;9.216;2023-08-21T02:27:59;95950.53;;;23.63;100.00
4590;BME280;2307;48.448;9.216;2023-08-21T02:30:26;95943.47;;;23.53;100.00
4590;BME280;2307;48.448;9.216;2023-08-21T02:32:54;95943.78;;;23.52;100.00
4590;BME280;2307;48.448;9.216;2023-08-21T02:35:21;95949.19;;;23.52;100.00
4590;BME280;2307;48.448;9.216;2023-08-21T02:37:47;95949.06;;;23.57;100.00
4590;BME280;2307;48.448;9.216;2023-08-21T02:40:13;95942.56;;;23.58;100.00
4590;BME280;2307;48.448;9.216;2023-08-21T02:42:40;95943.97;;;23.55;100.00
4590;BME280;2307;48.448;9.216;2023-08-21T02:45:07;95951.75;;;23.57;100.00
4590;BME280;2307;48.448;9.216;2023-08-21T02:47:34;95947.97;;;23.58;100.00
4590;BME280;2307;48.448;9.216;2023-08-21T02:50:02;95945.88;;;23.55;100.00
4590;BME280;2307;48.448;9.216;2023-08-21T02:52:29;95953.16;;;23.54;100.00
4590;BME280;2307;48.448;9.216;2023-08-21T02:54:55;95944.25;;;23.54;100.00
4590;BME280;2307;48.448;9.216;2023-08-21T02:57:22;95955.56;;;23.56;100.00
4590;BME280;2307;48.448;9.216;2023-08-21T02:59:49;95954.09;;;23.50;100.00
4590;BME280;2307;48.448;9.216;2023-08-21T03:02:15;95956.88;;;23.45;100.00
4590;BME280;2307;48.448;9.216;2023-08-21T03:04:42;95948.28;;;23.43;100.00
4590;BME280;2307;48.448;9.216;2023-08-21T03:07:09;95949.38;;;23.42;100.00
4590;BME280;2307;48.448;9.216;2023-08-21T03:09:36;95954.97;;;23.45;100.00
4590;BME280;2307;48.448;9.216;2023-08-21T03:12:02;95948.59;;;23.41;100.00
4590;BME280;2307;48.448;9.216;2023-08-21T03:14:29;95957.47;;;23.42;100.00
4590;BME280;2307;48.448;9.216;2023-08-21T03:16:55;95957.00;;;23.40;100.00
4590;BME280;2307;48.448;9.216;2023-08-21T03:19:21;95955.97;;;23.36;100.00
4590;BME280;2307;48.448;9.216;2023-08-21T03:21:48;95950.25;;;23.37;100.00
4590;BME280;2307;48.448;9.216;2023-08-21T03:24:16;95950.78;;;23.25;100.00
4590;BME280;2307;48.448;9.216;2023-08-21T03:26:42;95954.88;;;23.09;100.00
4590;BME280;2307;48.448;9.216;2023-08-21T03:29:08;95956.00;;;23.08;100.00
4590;BME280;2307;48.448;9.216;2023-08-21T03:31:35;95959.16;;;23.10;100.00
4590;BME280;2307;48.448;9.216;2023-08-21T03:34:01;95962.75;;;23.06;100.00
4590;BME280;2307;48.448;9.216;2023-08-21T03:36:28;95959.97;;;23.11;100.00
4590;BME280;2307;48.448;9.216;2023-08-21T03:38:56;95957.38;;;23.19;100.00
4590;BME280;2307;48.448;9.216;2023-08-21T03:41:24;95953.97;;;23.27;100.00
4590;BME280;2307;48.448;9.216;2023-08-21T03:43:51;95956.06;;;23.31;100.00
4590;BME280;2307;48.448;9.216;2023-08-21T03:46:17;95961.56;;;23.25;100.00
4590;BME280;2307;48.448;9.216;2023-08-21T03:48:43;95954.06;;;23.22;100.00
4590;BME280;2307;48.448;9.216;2023-08-21T03:51:10;95957.38;;;23.19;100.00
4590;BME280;2307;48.448;9.216;2023-08-21T03:53:36;95952.09;;;23.14;100.00
4590;BME280;2307;48.448;9.216;2023-08-21T03:56:03;95956.16;;;23.12;100.00
4590;BME280;2307;48.448;9.216;2023-08-21T03:58:31;95956.00;;;23.08;100.00
4590;BME280;2307;48.448;9.216;2023-08-21T04:00:58;95959.38;;;23.00;100.00
4590;BME280;2307;48.448;9.216;2023-08-21T04:03:24;95956.78;;;22.95;100.00
4590;BME280;2307;48.448;9.216;2023-08-21T04:05:52;95959.75;;;22.94;100.00
4590;BME280;2307;48.448;9.216;2023-08-21T04:08:19;95959.75;;;22.94;100.00
4590;BME280;2307;48.448;9.216;2023-08-21T04:10:45;95973.94;;;22.86;100.00
4590;BME280;2307;48.448;9.216;2023-08-21T04:13:12;95969.94;;;22.83;100.00
4590;BME280;2307;48.448;9.216;2023-08-21T04:15:43;95981.72;;;22.87;100.00
4590;BME280;2307;48.448;9.216;2023-08-21T04:18:10;95979.44;;;22.94;100.00
4590;BME280;2307;48.448;9.216;2023-08-21T04:20:36;95982.13;;;22.94;100.00
4590;BME280;2307;48.448;9.216;2023-08-21T04:23:03;95976.84;;;22.89;100.00
4590;BME280;2307;48.448;9.216;2023-08-21T04:25:30;95984.91;;;22.89;100.00
4590;BME280;2307;48.448;9.216;2023-08-21T04:27:56;95983.09;;;22.85;100.00
4590;BME280;2307;48.448;9.216;2023-08-21T04:30:22;95988.88;;;22.78;100.00
4590;BME280;2307;48.448;9.216;2023-08-21T04:32:50;95990.50;;;22.79;100.00
4590;BME280;2307;48.448;9.216;2023-08-21T04:35:16;95990.19;;;22.81;100.00
4590;BME280;2307;48.448;9.216;2023-08-21T04:37:43;95987.88;;;22.74;100.00
4590;BME280;2307;48.448;9.216;2023-08-21T04:40:10;95986.31;;;22.54;100.00
4590;BME280;2307;48.448;9.216;2023-08-21T04:42:37;95984.47;;;22.68;100.00
4590;BME280;2307;48.448;9.216;2023-08-21T04:45:03;95988.31;;;22.62;100.00
4590;BME280;2307;48.448;9.216;2023-08-21T04:47:31;95988.44;;;22.57;100.00
4590;BME280;2307;48.448;9.216;2023-08-21T04:49:59;95997.81;;;22.60;100.00
4590;BME280;2307;48.448;9.216;2023-08-21T04:52:25;95991.81;;;22.63;100.00
4590;BME280;2307;48.448;9.216;2023-08-21T04:54:52;96001.50;;;22.64;100.00
4590;BME280;2307;48.448;9.216;2023-08-21T04:57:18;95992.47;;;22.87;100.00
4590;BME280;2307;48.448;9.216;2023-08-21T04:59:46;95999.66;;;22.78;100.00
4590;BME280;2307;48.448;9.216;2023-08-21T05:02:12;95999.75;;;22.73;100.00
4590;BME280;2307;48.448;9.216;2023-08-21T05:04:39;96000.84;;;22.72;100.00
4590;BME280;2307;48.448;9.216;2023-08-21T05:07:06;96002.03;;;22.66;100.00
4590;BME280;2307;48.448;9.216;2023-08-21T05:09:33;96009.03;;;22.67;100.00
4590;BME280;2307;48.448;9.216;2023-08-21T05:11:59;96010.66;;;22.63;100.00
4590;BME280;2307;48.448;9.216;2023-08-21T05:14:25;96005.78;;;22.65;100.00
4590;BME280;2307;48.448;9.216;2023-08-21T05:16:52;96012.03;;;22.79;100.00
4590;BME280;2307;48.448;9.216;2023-08-21T05:19:18;96011.22;;;22.79;100.00
4590;BME280;2307;48.448;9.216;2023-08-21T05:21:45;96014.81;;;22.74;100.00
4590;BME280;2307;48.448;9.216;2023-08-21T05:24:13;96014.81;;;22.74;100.00
4590;BME280;2307;48.448;9.216;2023-08-21T05:26:39;96014.81;;;22.74;100.00
4590;BME280;2307;48.448;9.216;2023-08-21T05:29:05;96015.31;;;22.76;100.00
4590;BME280;2307;48.448;9.216;2023-08-21T05:31:32;96014.03;;;22.73;100.00
4590;BME280;2307;48.448;9.216;2023-08-21T05:33:58;96016.41;;;22.75;100.00
4590;BME280;2307;48.448;9.216;2023-08-21T05:36:25;96015.00;;;22.77;100.00
4590;BME280;2307;48.448;9.216;2023-08-21T05:38:51;96014.81;;;22.74;100.00
4590;BME280;2307;48.448;9.216;2023-08-21T05:41:19;96019.00;;;22.80;100.00
4590;BME280;2307;48.448;9.216;2023-08-21T05:43:45;96019.53;;;22.82;100.00
4590;BME280;2307;48.448;9.216;2023-08-21T05:46:12;96020.00;;;22.84;100.00
4590;BME280;2307;48.448;9.216;2023-08-21T05:48:39;96024.81;;;22.87;100.00
4590;BME280;2307;48.448;9.216;2023-08-21T05:51:05;96027.31;;;22.97;100.00
4590;BME280;2307;48.448;9.216;2023-08-21T05:53:31;96025.03;;;23.04;100.00
4590;BME280;2307;48.448;9.216;2023-08-21T05:55:58;96022.94;;;23.01;100.00
4590;BME280;2307;48.448;9.216;2023-08-21T05:58:25;96028.22;;;23.06;100.00
4590;BME280;2307;48.448;9.216;2023-08-21T06:00:55;96034.41;;;23.07;100.00
4590;BME280;2307;48.448;9.216;2023-08-21T06:03:21;96037.81;;;23.12;100.00
4590;BME280;2307;48.448;9.216;2023-08-21T06:05:48;96040.41;;;23.04;100.00
4590;BME280;2307;48.448;9.216;2023-08-21T06:08:14;96037.72;;;23.04;100.00
4590;BME280;2307;48.448;9.216;2023-08-21T06:10:41;96043.22;;;22.99;100.00
4590;BME280;2307;48.448;9.216;2023-08-21T06:13:07;96040.50;;;22.99;100.00
4590;BME280;2307;48.448;9.216;2023-08-21T06:15:35;96041.00;;;23.01;100.00
4590;BME280;2307;48.448;9.216;2023-08-21T06:18:01;96044.91;;;23.08;100.00
4590;BME280;2307;48.448;9.216;2023-08-21T06:20:28;96051.09;;;23.22;100.00
4590;BME280;2307;48.448;9.216;2023-08-21T06:22:54;96046.19;;;23.24;100.00
4590;BME280;2307;48.448;9.216;2023-08-21T06:25:20;96051.22;;;23.17;100.00
4590;BME280;2307;48.448;9.216;2023-08-21T06:27:47;96041.63;;;23.11;100.00
4590;BME280;2307;48.448;9.216;2023-08-21T06:30:13;96041.41;;;23.08;100.00
4590;BME280;2307;48.448;9.216;2023-08-21T06:32:43;96050.47;;;23.12;100.00
4590;BME280;2307;48.448;9.216;2023-08-21T06:35:09;96052.41;;;23.11;100.00
4590;BME280;2307;48.448;9.216;2023-08-21T06:37:36;96047.50;;;23.13;100.00
4590;BME280;2307;48.448;9.216;2023-08-21T06:40:02;96057.41;;;23.32;100.00
4590;BME280;2307;48.448;9.216;2023-08-21T06:42:29;96051.13;;;23.36;100.00
4590;BME280;2307;48.448;9.216;2023-08-21T06:44:55;96052.53;;;23.34;100.00
4590;BME280;2307;48.448;9.216;2023-08-21T06:47:21;96052.22;;;23.35;100.00
4590;BME280;2307;48.448;9.216;2023-08-21T06:49:49;96050.00;;;23.37;100.00
4590;BME280;2307;48.448;9.216;2023-08-21T06:52:16;96051.84;;;23.42;100.00
4590;BME280;2307;48.448;9.216;2023-08-21T06:54:42;96061.44;;;23.48;100.00
4590;BME280;2307;48.448;9.216;2023-08-21T06:57:08;96056.84;;;23.62;100.00
4590;BME280;2307;48.448;9.216;2023-08-21T06:59:35;96055.22;;;23.61;100.00
4590;BME280;2307;48.448;9.216;2023-08-21T07:02:01;96047.03;;;23.66;100.00
4590;BME280;2307;48.448;9.216;2023-08-21T07:04:27;96046.63;;;23.72;100.00
4590;BME280;2307;48.448;9.216;2023-08-21T07:06:55;96061.13;;;23.76;100.00
4590;BME280;2307;48.448;9.216;2023-08-21T07:09:22;96057.81;;;23.79;100.00
4590;BME280;2307;48.448;9.216;2023-08-21T07:11:48;96061.19;;;23.85;100.00
4590;BME280;2307;48.448;9.216;2023-08-21T07:14:14;96055.78;;;23.99;100.00
4590;BME280;2307;48.448;9.216;2023-08-21T07:16:42;96060.88;;;24.00;100.00
4590;BME280;2307;48.448;9.216;2023-08-21T07:19:08;96062.38;;;24.06;100.00
4590;BME280;2307;48.448;9.216;2023-08-21T07:21:35;96065.56;;;24.08;100.00
4590;BME280;2307;48.448;9.216;2023-08-21T07:24:04;96073.16;;;24.20;100.00
4590;BME280;2307;48.448;9.216;2023-08-21T07:26:31;96065.25;;;24.23;100.00
4590;BME280;2307;48.448;9.216;2023-08-21T07:28:58;96060.34;;;24.25;100.00
4590;BME280;2307;48.448;9.216;2023-08-21T07:31:24;96070.53;;;24.28;100.00
4590;BME280;2307;48.448;9.216;2023-08-21T07:33:50;96063.53;;;24.27;100.00
4590;BME280;2307;48.448;9.216;2023-08-21T07:36:17;96063.53;;;24.27;100.00
4590;BME280;2307;48.448;9.216;2023-08-21T07:38:43;96070.19;;;24.44;100.00
4590;BME280;2307;48.448;9.216;2023-08-21T07:41:11;96077.53;;;24.52;100.00
4590;BME280;2307;48.448;9.216;2023-08-21T07:43:39;96076.81;;;24.60;100.00
4590;BME280;2307;48.448;9.216;2023-08-21T07:46:07;96074.72;;;24.57;100.00
4590;BME280;2307;48.448;9.216;2023-08-21T07:48:34;96070.81;;;24.63;100.00
4590;BME280;2307;48.448;9.216;2023-08-21T07:51:01;96070.38;;;24.69;100.00
4590;BME280;2307;48.448;9.216;2023-08-21T07:53:28;96073.75;;;24.75;100.00
4590;BME280;2307;48.448;9.216;2023-08-21T07:55:56;96076.84;;;24.82;100.00
4590;BME280;2307;48.448;9.216;2023-08-21T07:58:24;96074.31;;;24.86;100.00
4590;BME280;2307;48.448;9.216;2023-08-21T08:00:50;96072.28;;;24.91;100.00
4590;BME280;2307;48.448;9.216;2023-08-21T08:03:16;96075.47;;;24.93;100.00
4590;BME280;2307;48.448;9.216;2023-08-21T08:05:43;96071.28;;;25.09;100.00
4590;BME280;2307;48.448;9.216;2023-08-21T08:08:09;96071.16;;;25.14;100.00
4590;BME280;2307;48.448;9.216;2023-08-21T08:10:37;96067.69;;;25.22;100.00
4590;BME280;2307;48.448;9.216;2023-08-21T08:13:03;96075.06;;;25.30;100.00
4590;BME280;2307;48.448;9.216;2023-08-21T08:15:31;96078.25;;;25.32;100.00
4590;BME280;2307;48.448;9.216;2023-08-21T08:17:59;96067.28;;;25.37;100.00
4590;BME280;2307;48.448;9.216;2023-08-21T08:20:25;96078.16;;;25.46;100.00
4590;BME280;2307;48.448;9.216;2023-08-21T08:22:51;96075.78;;;25.53;100.00
4590;BME280;2307;48.448;9.216;2023-08-21T08:25:18;96076.47;;;25.59;100.00
4590;BME280;2307;48.448;9.216;2023-08-21T08:27:44;96077.41;;;25.63;100.00
4590;BME280;2307;48.448;9.216;2023-08-21T08:30:11;96076.34;;;25.72;100.00
4590;BME280;2307;48.448;9.216;2023-08-21T08:32:39;96078.75;;;25.74;100.00
4590;BME280;2307;48.448;9.216;2023-08-21T08:35:06;96086.41;;;25.80;100.00
4590;BME280;2307;48.448;9.216;2023-08-21T08:37:33;96075.59;;;25.89;100.00
4590;BME280;2307;48.448;9.216;2023-08-21T08:39:59;96074.81;;;25.97;100.00
4590;BME280;2307;48.448;9.216;2023-08-21T08:42:25;96071.97;;;26.02;100.00
4590;BME280;2307;48.448;9.216;2023-08-21T08:44:52;96071.66;;;26.12;100.00
4590;BME280;2307;48.448;9.216;2023-08-21T08:47:20;96078.53;;;26.27;100.00
4590;BME280;2307;48.448;9.216;2023-08-21T08:49:48;96075.03;;;26.26;100.00
4590;BME280;2307;48.448;9.216;2023-08-21T08:52:15;96082.06;;;26.27;100.00
4590;BME280;2307;48.448;9.216;2023-08-21T08:54:43;96077.91;;;26.38;100.00
4590;BME280;2307;48.448;9.216;2023-08-21T08:57:10;96083.19;;;26.44;100.00
4590;BME280;2307;48.448;9.216;2023-08-21T08:59:37;96080.16;;;26.54;100.00
4590;BME280;2307;48.448;9.216;2023-08-21T09:02:03;96086.38;;;26.63;100.00
4590;BME280;2307;48.448;9.216;2023-08-21T09:04:29;96081.09;;;26.75;100.00
4590;BME280;2307;48.448;9.216;2023-08-21T09:07:06;96075.84;;;26.70;100.00
4590;BME280;2307;48.448;9.216;2023-08-21T09:09:37;96081.09;;;26.75;100.00
4590;BME280;2307;48.448;9.216;2023-08-21T09:12:06;96076.31;;;26.72;100.00
4590;BME280;2307;48.448;9.216;2023-08-21T09:14:33;96086.66;;;26.78;100.00
4590;BME280;2307;48.448;9.216;2023-08-21T09:16:59;96091.31;;;26.95;100.00
4590;BME280;2307;48.448;9.216;2023-08-21T09:19:28;96089.38;;;26.96;100.00
4590;BME280;2307;48.448;9.216;2023-08-21T09:21:55;96080.78;;;26.85;100.00
4590;BME280;2307;48.448;9.216;2023-08-21T09:24:22;96080.16;;;26.88;100.00
4590;BME280;2307;48.448;9.216;2023-08-21T09:26:49;96084.59;;;27.01;100.00
4590;BME280;2307;48.448;9.216;2023-08-21T09:29:16;96084.75;;;27.05;100.00
4590;BME280;2307;48.448;9.216;2023-08-21T09:31:43;96089.03;;;27.14;100.00
4590;BME280;2307;48.448;9.216;2023-08-21T09:34:11;96078.00;;;27.19;100.00
4590;BME280;2307;48.448;9.216;2023-08-21T09:36:38;96090.63;;;27.15;100.00
4590;BME280;2307;48.448;9.216;2023-08-21T09:39:05;96080.84;;;27.31;100.00
4590;BME280;2307;48.448;9.216;2023-08-21T09:41:33;96076.34;;;27.35;100.00
4590;BME280;2307;48.448;9.216;2023-08-21T09:43:59;96080.81;;;27.49;100.00
4590;BME280;2307;48.448;9.216;2023-08-21T09:46:26;96065.75;;;27.60;100.00
4590;BME280;2307;48.448;9.216;2023-08-21T09:48:53;96068.75;;;27.67;100.00
4590;BME280;2307;48.448;9.216;2023-08-21T09:51:20;96072.88;;;27.73;100.00
4590;BME280;2307;48.448;9.216;2023-08-21T09:53:46;96074.31;;;27.70;100.00
4590;BME280;2307;48.448;9.216;2023-08-21T09:56:13;96069.94;;;27.86;100.00
4590;BME280;2307;48.448;9.216;2023-08-21T09:58:43;96074.50;;;27.94;100.00
4590;BME280;2307;48.448;9.216;2023-08-21T10:01:10;96071.75;;;28.03;100.00
4590;BME280;2307;48.448;9.216;2023-08-21T10:03:39;96065.69;;;28.06;100.00
4590;BME280;2307;48.448;9.216;2023-08-21T10:06:06;96072.53;;;28.12;100.00
4590;BME280;2307;48.448;9.216;2023-08-21T10:08:36;96065.75;;;28.18;100.00
4590;BME280;2307;48.448;9.216;2023-08-21T10:11:04;96069.94;;;28.36;100.00
4590;BME280;2307;48.448;9.216;2023-08-21T10:13:31;96058.66;;;28.46;100.00
4590;BME280;2307;48.448;9.216;2023-08-21T10:15:59;96068.47;;;28.60;100.00
4590;BME280;2307;48.448;9.216;2023-08-21T10:18:29;96061.19;;;28.52;100.00
4590;BME280;2307;48.448;9.216;2023-08-21T10:20:55;96059.72;;;28.75;100.00
4590;BME280;2307;48.448;9.216;2023-08-21T10:23:26;96057.63;;;28.92;100.00
4590;BME280;2307;48.448;9.216;2023-08-21T10:25:56;96061.09;;;29.14;100.00
4590;BME280;2307;48.448;9.216;2023-08-21T10:28:23;96055.59;;;29.34;98.45
4590;BME280;2307;48.448;9.216;2023-08-21T10:30:49;96054.84;;;29.70;98.17
4590;BME280;2307;48.448;9.216;2023-08-21T10:33:17;96056.78;;;29.94;92.63
4590;BME280;2307;48.448;9.216;2023-08-21T10:36:04;96057.47;;;30.03;91.67
4590;BME280;2307;48.448;9.216;2023-08-21T10:38:30;96056.03;;;30.33;88.91
4590;BME280;2307;48.448;9.216;2023-08-21T10:41:03;96052.75;;;30.40;85.58
4590;BME280;2307;48.448;9.216;2023-08-21T10:43:37;96048.53;;;30.42;82.57
4590;BME280;2307;48.448;9.216;2023-08-21T10:46:03;96057.09;;;30.69;85.25
4590;BME280;2307;48.448;9.216;2023-08-21T10:48:31;96044.59;;;30.68;80.90
4590;BME280;2307;48.448;9.216;2023-08-21T10:50:58;96041.97;;;30.71;82.28
4590;BME280;2307;48.448;9.216;2023-08-21T10:53:25;96039.16;;;31.11;80.98
4590;BME280;2307;48.448;9.216;2023-08-21T10:55:52;96035.69;;;31.26;78.94
4590;BME280;2307;48.448;9.216;2023-08-21T10:58:19;96041.78;;;31.51;77.74
4590;BME280;2307;48.448;9.216;2023-08-21T11:00:45;96037.97;;;31.55;73.94
4590;BME280;2307;48.448;9.216;2023-08-21T11:03:12;96034.09;;;31.56;72.48
4590;BME280;2307;48.448;9.216;2023-08-21T11:05:39;96041.03;;;31.85;72.89
4590;BME280;2307;48.448;9.216;2023-08-21T11:08:06;96038.56;;;32.12;72.28
4590;BME280;2307;48.448;9.216;2023-08-21T11:10:32;96041.19;;;32.43;72.63
4590;BME280;2307;48.448;9.216;2023-08-21T11:12:58;96039.69;;;32.65;66.33
4590;BME280;2307;48.448;9.216;2023-08-21T11:15:26;96035.25;;;32.76;65.44
4590;BME280;2307;48.448;9.216;2023-08-21T11:17:54;96043.28;;;32.88;63.55
4590;BME280;2307;48.448;9.216;2023-08-21T11:20:20;96043.94;;;32.81;60.43
4590;BME280;2307;48.448;9.216;2023-08-21T11:22:48;96039.41;;;32.50;65.24
4590;BME280;2307;48.448;9.216;2023-08-21T11:25:14;96033.47;;;32.48;61.97
4590;BME280;2307;48.448;9.216;2023-08-21T11:27:41;96037.69;;;32.61;62.03
4590;BME280;2307;48.448;9.216;2023-08-21T11:30:10;96033.88;;;32.85;63.13
4590;BME280;2307;48.448;9.216;2023-08-21T11:32:36;96043.84;;;32.39;62.24
4590;BME280;2307;48.448;9.216;2023-08-21T11:35:03;96038.69;;;32.53;61.80
4590;BME280;2307;48.448;9.216;2023-08-21T11:37:30;96032.59;;;32.60;60.62
4590;BME280;2307;48.448;9.216;2023-08-21T11:39:58;96035.03;;;32.65;58.94
4590;BME280;2307;48.448;9.216;2023-08-21T11:42:28;96033.00;;;32.81;60.20
4590;BME280;2307;48.448;9.216;2023-08-21T11:44:55;96029.97;;;33.28;60.29
4590;BME280;2307;48.448;9.216;2023-08-21T11:47:22;96025.88;;;33.60;57.09
4590;BME280;2307;48.448;9.216;2023-08-21T11:49:49;96030.19;;;33.88;54.53
4590;BME280;2307;48.448;9.216;2023-08-21T11:52:17;96032.94;;;33.88;56.30
4590;BME280;2307;48.448;9.216;2023-08-21T11:54:47;96031.63;;;34.31;53.84
4590;BME280;2307;48.448;9.216;2023-08-21T11:57:15;96034.13;;;34.43;51.24
4590;BME280;2307;48.448;9.216;2023-08-21T11:59:41;96030.84;;;34.30;49.98
4590;BME280;2307;48.448;9.216;2023-08-21T12:02:09;96022.72;;;34.11;50.71
4590;BME280;2307;48.448;9.216;2023-08-21T12:04:36;96024.75;;;34.44;50.09
4590;BME280;2307;48.448;9.216;2023-08-21T12:07:02;96021.19;;;34.73;50.33
4590;BME280;2307;48.448;9.216;2023-08-21T12:09:29;96032.47;;;34.98;50.52
4590;BME280;2307;48.448;9.216;2023-08-21T12:11:55;96022.91;;;34.85;47.68
4590;BME280;2307;48.448;9.216;2023-08-21T12:14:23;96028.44;;;34.88;49.55
4590;BME280;2307;48.448;9.216;2023-08-21T12:16:50;96024.28;;;35.05;47.26
4590;BME280;2307;48.448;9.216;2023-08-21T12:19:16;96017.41;;;35.18;47.34
4590;BME280;2307;48.448;9.216;2023-08-21T12:21:43;96020.31;;;35.39;46.40
4590;BME280;2307;48.448;9.216;2023-08-21T12:24:09;96013.13;;;35.24;46.63
4590;BME280;2307;48.448;9.216;2023-08-21T12:26:35;96014.38;;;35.30;43.55
4590;BME280;2307;48.448;9.216;2023-08-21T12:29:02;96017.25;;;35.44;44.30
4590;BME280;2307;48.448;9.216;2023-08-21T12:31:29;96014.44;;;35.85;44.47
4590;BME280;2307;48.448;9.216;2023-08-21T12:33:56;96004.53;;;35.69;43.65
4590;BME280;2307;48.448;9.216;2023-08-21T12:36:23;96004.38;;;35.52;44.38
4590;BME280;2307;48.448;9.216;2023-08-21T12:38:49;96000.84;;;35.55;44.56
4590;BME280;2307;48.448;9.216;2023-08-21T12:41:16;96007.69;;;35.28;46.31
4590;BME280;2307;48.448;9.216;2023-08-21T12:43:42;96000.84;;;35.55;45.35
4590;BME280;2307;48.448;9.216;2023-08-21T12:46:09;96000.06;;;35.54;44.25
4590;BME280;2307;48.448;9.216;2023-08-21T12:48:36;95997.88;;;35.70;43.01
4590;BME280;2307;48.448;9.216;2023-08-21T12:51:03;96002.69;;;35.88;44.80
4590;BME280;2307;48.448;9.216;2023-08-21T12:53:30;95991.88;;;36.09;41.51
4590;BME280;2307;48.448;9.216;2023-08-21T12:55:56;95986.22;;;35.95;42.68
4590;BME280;2307;48.448;9.216;2023-08-21T12:58:23;95985.38;;;35.87;42.93
4590;BME280;2307;48.448;9.216;2023-08-21T13:00:49;95986.63;;;35.97;41.46
4590;BME280;2307;48.448;9.216;2023-08-21T13:03:15;95994.28;;;36.21;40.75
4590;BME280;2307;48.448;9.216;2023-08-21T13:05:43;95980.66;;;36.49;40.67
4590;BME280;2307;48.448;9.216;2023-08-21T13:08:10;95981.91;;;36.62;39.79
4590;BME280;2307;48.448;9.216;2023-08-21T13:10:36;95972.84;;;36.58;39.07